Time;durP1;ratioP1;P1;durP2;ratioP2;P2;SDS_P1;SDS_P2;PMS_P1;PMS_P2;Temp;Humidity;BMP_temperature;BMP_pressure;BME280_temperature;BME280_humidity;BME280_pressure;Samples;Min_cycle;Max_cycle;Signal;HPM_P1;HPM_P2
2021/06/28 00:00:20;;;;;;;7.70;3.00;;;18.70;99.90;;;;;;5051847;28;20018;-79
2021/06/28 00:02:46;;;;;;;4.53;2.80;;;18.70;99.90;;;;;;5033158;28;20048;-79
2021/06/28 00:05:13;;;;;;;5.68;3.30;;;18.70;99.90;;;;;;5053453;28;20017;-79
2021/06/28 00:07:40;;;;;;;4.57;3.13;;;18.70;99.90;;;;;;5034611;28;20022;-79
2021/06/28 00:10:11;;;;;;;5.90;3.47;;;18.60;99.90;;;;;;5048703;28;20031;-78
2021/06/28 00:12:37;;;;;;;5.35;3.78;;;18.60;99.90;;;;;;5034347;28;20104;-76
2021/06/28 00:15:07;;;;;;;7.10;3.20;;;18.60;99.90;;;;;;5016058;28;20517;-76
2021/06/28 00:17:32;;;;;;;7.32;3.47;;;18.60;99.90;;;;;;5034223;28;20025;-76
2021/06/28 00:19:58;;;;;;;4.97;3.20;;;18.60;99.90;;;;;;5017444;28;20091;-76
2021/06/28 00:22:23;;;;;;;5.95;3.00;;;18.60;99.90;;;;;;5034198;28;20077;-76
2021/06/28 00:24:49;;;;;;;7.78;3.28;;;18.60;99.90;;;;;;5016519;28;20018;-76
2021/06/28 00:27:14;;;;;;;5.03;3.38;;;18.60;99.90;;;;;;5034717;28;20071;-76
2021/06/28 00:29:40;;;;;;;7.90;3.92;;;18.60;99.90;;;;;;5034051;28;20100;-76
2021/06/28 00:32:05;;;;;;;6.93;3.05;;;18.50;99.90;;;;;;5034300;28;20021;-76
2021/06/28 00:34:31;;;;;;;10.50;3.40;;;18.50;99.90;;;;;;5016331;28;20025;-76
2021/06/28 00:36:57;;;;;;;4.70;3.15;;;18.60;99.90;;;;;;5033896;28;20026;-76
2021/06/28 00:39:24;;;;;;;7.00;3.20;;;18.60;99.90;;;;;;5033984;28;20057;-76
2021/06/28 00:41:49;;;;;;;6.18;3.47;;;18.50;99.90;;;;;;5034207;28;20411;-76
2021/06/28 00:44:15;;;;;;;5.35;3.22;;;18.50;99.90;;;;;;5034166;28;20057;-76
2021/06/28 00:46:42;;;;;;;6.78;3.30;;;18.50;99.90;;;;;;5036592;28;20025;-80
2021/06/28 00:49:07;;;;;;;5.95;3.35;;;18.50;99.90;;;;;;5020459;28;20045;-80
2021/06/28 00:51:33;;;;;;;5.65;3.47;;;18.50;99.90;;;;;;5038321;28;20025;-80
2021/06/28 00:53:59;;;;;;;7.65;4.03;;;18.40;99.90;;;;;;5021006;28;20025;-80
2021/06/28 00:56:25;;;;;;;4.25;3.28;;;18.40;99.90;;;;;;5020415;28;20394;-75
2021/06/28 00:58:50;;;;;;;5.38;3.30;;;18.50;99.90;;;;;;5034013;28;20025;-75
2021/06/28 01:01:16;;;;;;;7.13;3.42;;;18.50;99.90;;;;;;5039235;28;20030;-79
2021/06/28 01:03:42;;;;;;;6.68;3.60;;;18.50;99.90;;;;;;5048932;28;20086;-79
2021/06/28 01:06:14;;;;;;;5.85;3.72;;;18.50;99.90;;;;;;5027952;28;20079;-79
2021/06/28 01:08:40;;;;;;;4.30;3.10;;;18.50;99.90;;;;;;5042718;28;20056;-79
2021/06/28 01:11:06;;;;;;;5.68;3.53;;;18.50;99.90;;;;;;5045791;28;20029;-79
2021/06/28 01:13:33;;;;;;;5.88;3.70;;;18.50;99.90;;;;;;5032620;28;20005;-79
2021/06/28 01:16:00;;;;;;;7.97;3.85;;;18.50;99.90;;;;;;5049615;28;20081;-79
2021/06/28 01:18:26;;;;;;;6.50;3.17;;;18.50;99.90;;;;;;5047615;28;20113;-79
2021/06/28 01:20:52;;;;;;;5.15;3.38;;;18.50;99.90;;;;;;5042875;28;20048;-78
2021/06/28 01:23:23;;;;;;;5.05;3.08;;;18.50;99.90;;;;;;5026092;28;20085;-79
2021/06/28 01:25:53;;;;;;;5.00;3.42;;;18.50;99.90;;;;;;5037674;28;20032;-79
2021/06/28 01:28:19;;;;;;;5.07;3.40;;;18.50;99.90;;;;;;5036070;28;20029;-79
2021/06/28 01:30:45;;;;;;;5.50;3.42;;;18.60;99.90;;;;;;5037276;28;20026;-80
2021/06/28 01:33:11;;;;;;;6.22;3.55;;;18.40;99.90;;;;;;5037354;28;20022;-79
2021/06/28 01:35:38;;;;;;;10.77;3.05;;;18.40;99.90;;;;;;5036551;28;20477;-79
2021/06/28 01:38:04;;;;;;;5.07;4.03;;;18.30;99.90;;;;;;5018789;28;20029;-79
2021/06/28 01:40:30;;;;;;;6.53;4.35;;;18.30;99.90;;;;;;5018712;28;20037;-79
2021/06/28 01:42:56;;;;;;;8.45;4.05;;;18.20;99.90;;;;;;5037690;28;20022;-80
2021/06/28 01:45:23;;;;;;;6.00;3.85;;;18.20;99.90;;;;;;5018729;28;20044;-79
2021/06/28 01:47:50;;;;;;;7.32;3.72;;;18.10;99.90;;;;;;5036683;28;20036;-79
2021/06/28 01:50:17;;;;;;;6.05;4.13;;;18.10;99.90;;;;;;5018851;28;20473;-78
2021/06/28 01:52:44;;;;;;;6.55;4.25;;;18.10;99.90;;;;;;5034315;28;20602;-78
2021/06/28 01:55:13;;;;;;;6.28;4.30;;;18.10;99.90;;;;;;5036024;28;20393;-79
2021/06/28 01:57:48;;;;;;;10.10;4.22;;;18.00;99.90;;;;;;5020641;28;20021;-80
2021/06/28 02:00:17;;;;;;;7.65;3.67;;;18.00;99.90;;;;;;5036060;28;20471;-79
2021/06/28 02:02:59;;;;;;;5.22;3.75;;;18.00;99.90;;;;;;5016304;28;20020;-78
2021/06/28 02:05:26;;;;;;;5.35;3.70;;;18.00;99.90;;;;;;5016473;28;20075;-78
2021/06/28 02:07:52;;;;;;;11.73;4.28;;;18.00;99.90;;;;;;5034172;28;20040;-78
2021/06/28 02:10:17;;;;;;;5.72;3.70;;;17.90;99.90;;;;;;5036010;28;20463;-79
2021/06/28 02:12:43;;;;;;;6.25;3.60;;;18.50;99.90;;;;;;5018297;28;20486;-79
2021/06/28 02:15:25;;;;;;;6.68;4.32;;;17.90;99.90;;;;;;5037232;28;20029;-79
2021/06/28 02:17:51;;;;;;;7.32;3.90;;;17.90;99.90;;;;;;5019227;28;20092;-79
2021/06/28 02:20:21;;;;;;;5.35;3.50;;;17.80;99.90;;;;;;5018817;28;20470;-80
2021/06/28 02:22:48;;;;;;;5.75;4.15;;;17.80;99.90;;;;;;5036864;28;20105;-80
2021/06/28 02:25:15;;;;;;;4.90;3.47;;;17.80;99.90;;;;;;5036031;28;20056;-79
2021/06/28 02:27:42;;;;;;;8.80;4.63;;;17.80;99.90;;;;;;5018453;28;20030;-79
2021/06/28 02:30:13;;;;;;;8.32;4.13;;;17.70;99.90;;;;;;5018127;28;20052;-79
2021/06/28 02:32:40;;;;;;;6.32;4.30;;;17.70;99.90;;;;;;5035304;28;20025;-79
2021/06/28 02:35:09;;;;;;;7.43;4.47;;;17.70;99.90;;;;;;5036055;28;20029;-78
2021/06/28 02:37:35;;;;;;;9.90;4.70;;;17.70;99.90;;;;;;5037103;28;20064;-78
2021/06/28 02:40:01;;;;;;;5.95;4.47;;;17.60;99.90;;;;;;5023175;28;20104;-79
2021/06/28 02:42:27;;;;;;;6.97;4.60;;;17.60;99.90;;;;;;5039457;28;20026;-79
2021/06/28 02:44:53;;;;;;;8.80;4.13;;;17.60;99.90;;;;;;5039610;28;20045;-79
2021/06/28 02:47:18;;;;;;;7.55;4.22;;;18.10;99.90;;;;;;5022839;28;20025;-79
2021/06/28 02:49:44;;;;;;;6.22;4.45;;;17.50;99.90;;;;;;5023138;28;20112;-79
2021/06/28 02:52:09;;;;;;;8.98;4.90;;;17.40;99.90;;;;;;5040260;28;20029;-80
2021/06/28 02:54:35;;;;;;;9.05;4.13;;;17.40;99.90;;;;;;5023554;28;20503;-80
2021/06/28 02:57:01;;;;;;;7.78;4.50;;;17.30;99.90;;;;;;5025103;28;20033;-80
2021/06/28 02:59:26;;;;;;;7.10;4.40;;;17.30;99.90;;;;;;5035989;28;20473;-80
2021/06/28 03:01:52;;;;;;;6.00;4.57;;;17.30;99.90;;;;;;5062924;28;20013;-80
2021/06/28 03:04:18;;;;;;;7.00;3.83;;;17.20;99.90;;;;;;5044097;28;20017;-80
2021/06/28 03:06:44;;;;;;;7.72;4.15;;;17.20;99.90;;;;;;5042831;28;20041;-80
2021/06/28 03:09:10;;;;;;;9.48;4.20;;;17.10;99.90;;;;;;5041343;28;20035;-79
2021/06/28 03:11:35;;;;;;;6.10;4.25;;;17.20;99.90;;;;;;5040433;28;20459;-79
2021/06/28 03:14:02;;;;;;;5.93;4.30;;;17.10;99.90;;;;;;5043697;28;20026;-79
2021/06/28 03:16:28;;;;;;;7.05;4.10;;;17.10;99.90;;;;;;5021596;28;20026;-80
2021/06/28 03:18:53;;;;;;;5.72;4.63;;;17.10;99.90;;;;;;5039516;28;20021;-79
2021/06/28 03:21:19;;;;;;;6.90;4.63;;;17.10;99.90;;;;;;5039592;28;20552;-79
2021/06/28 03:23:46;;;;;;;6.38;4.50;;;17.30;99.90;;;;;;5039268;28;20486;-79
2021/06/28 03:26:13;;;;;;;9.07;4.35;;;17.00;99.90;;;;;;5039632;28;20021;-79
2021/06/28 03:28:39;;;;;;;9.23;4.88;;;17.00;99.90;;;;;;5021466;28;20021;-79
2021/06/28 03:31:06;;;;;;;9.13;5.47;;;17.00;99.90;;;;;;5021566;28;20024;-79
2021/06/28 03:33:33;;;;;;;10.60;4.90;;;17.30;99.90;;;;;;5022151;28;20013;-79
2021/06/28 03:35:59;;;;;;;8.43;4.43;;;17.00;99.90;;;;;;5005446;28;20022;-79
2021/06/28 03:38:24;;;;;;;8.85;5.75;;;16.90;99.90;;;;;;5005330;28;20030;-79
2021/06/28 03:40:50;;;;;;;9.32;4.95;;;16.90;99.90;;;;;;5039953;28;20026;-79
2021/06/28 03:43:16;;;;;;;6.97;4.10;;;16.90;99.90;;;;;;5052858;28;20035;-79
2021/06/28 03:45:42;;;;;;;7.35;4.85;;;16.90;99.90;;;;;;5041307;28;20013;-79
2021/06/28 03:48:09;;;;;;;7.03;4.65;;;16.90;99.90;;;;;;5059112;28;20079;-79
2021/06/28 03:50:37;;;;;;;6.40;4.67;;;16.80;99.90;;;;;;5040685;28;20120;-79
2021/06/28 03:53:03;;;;;;;9.85;5.03;;;16.80;99.90;;;;;;5059184;28;20051;-79
2021/06/28 03:55:29;;;;;;;9.43;5.30;;;16.80;99.90;;;;;;5040458;28;20065;-79
2021/06/28 03:57:55;;;;;;;8.82;5.10;;;16.80;99.90;;;;;;5041895;28;20111;-79
2021/06/28 04:00:23;;;;;;;7.03;4.72;;;16.80;99.90;;;;;;5058668;28;20025;-80
2021/06/28 04:02:49;;;;;;;9.85;6.03;;;16.80;99.90;;;;;;5041929;28;20029;-79
2021/06/28 04:05:21;;;;;;;8.25;5.22;;;16.90;99.90;;;;;;5041098;28;20170;-79
2021/06/28 04:07:47;;;;;;;10.27;5.80;;;16.90;99.90;;;;;;5040954;28;20040;-79
2021/06/28 04:10:16;;;;;;;9.20;5.28;;;17.00;99.90;;;;;;5039621;28;20022;-79
2021/06/28 04:12:43;;;;;;;10.68;6.15;;;17.10;99.90;;;;;;5034954;28;20036;-76
2021/06/28 04:15:11;;;;;;;10.30;6.35;;;17.10;99.90;;;;;;5034647;28;20021;-76
2021/06/28 04:17:41;;;;;;;9.23;6.22;;;17.10;99.90;;;;;;5016672;28;20037;-76
2021/06/28 04:20:10;;;;;;;10.23;6.32;;;17.10;99.90;;;;;;5047177;28;20040;-76
2021/06/28 04:22:37;;;;;;;10.57;6.60;;;17.20;99.90;;;;;;5054052;28;20035;-77
2021/06/28 04:25:07;;;;;;;11.45;6.65;;;17.20;99.90;;;;;;5054462;28;20017;-77
2021/06/28 04:27:33;;;;;;;11.02;6.32;;;17.20;99.90;;;;;;5036193;28;20033;-77
2021/06/28 04:29:59;;;;;;;11.70;6.38;;;17.30;99.90;;;;;;5054210;28;20507;-77
2021/06/28 04:32:25;;;;;;;12.55;7.10;;;17.30;99.90;;;;;;5036250;28;20029;-77
2021/06/28 04:34:50;;;;;;;13.93;7.55;;;17.40;99.90;;;;;;5054414;28;20017;-77
2021/06/28 04:37:16;;;;;;;11.57;6.93;;;17.50;99.90;;;;;;5021777;28;20680;-78
2021/06/28 04:39:42;;;;;;;11.10;6.45;;;17.50;99.90;;;;;;5024805;28;20024;-77
2021/06/28 04:42:08;;;;;;;10.98;6.63;;;17.60;99.90;;;;;;5033864;28;20078;-77
2021/06/28 04:44:34;;;;;;;9.52;6.63;;;17.70;99.90;;;;;;5016621;28;20028;-77
2021/06/28 04:46:59;;;;;;;12.90;7.88;;;17.70;99.90;;;;;;5053748;28;20033;-77
2021/06/28 04:49:25;;;;;;;11.60;6.85;;;17.80;99.90;;;;;;5019396;28;20041;-76
2021/06/28 04:51:51;;;;;;;12.85;7.30;;;17.80;99.90;;;;;;5037254;28;20024;-76
2021/06/28 04:54:19;;;;;;;13.38;7.97;;;17.90;99.90;;;;;;5033809;28;20478;-76
2021/06/28 04:56:44;;;;;;;13.73;7.63;;;18.00;99.90;;;;;;5033648;28;20498;-76
2021/06/28 04:59:10;;;;;;;12.63;7.40;;;18.10;99.90;;;;;;5033483;28;20018;-77
2021/06/28 05:01:36;;;;;;;11.88;7.13;;;18.20;99.90;;;;;;5033317;28;20028;-76
2021/06/28 05:04:02;;;;;;;11.90;6.80;;;18.30;99.90;;;;;;5033513;28;20027;-77
2021/06/28 05:06:27;;;;;;;10.77;6.85;;;18.40;99.90;;;;;;5033477;28;20047;-76
2021/06/28 05:08:53;;;;;;;10.98;6.97;;;18.40;99.90;;;;;;5033833;28;20021;-76
2021/06/28 05:11:18;;;;;;;14.15;7.45;;;18.50;99.90;;;;;;5033958;28;20034;-76
2021/06/28 05:13:44;;;;;;;11.73;7.50;;;18.60;99.90;;;;;;5033496;28;20461;-76
2021/06/28 05:16:10;;;;;;;10.60;6.78;;;18.70;99.90;;;;;;5033628;28;20104;-76
2021/06/28 05:18:35;;;;;;;12.27;7.45;;;18.80;99.90;;;;;;5042501;28;20067;-77
2021/06/28 05:21:01;;;;;;;10.50;6.80;;;18.80;99.90;;;;;;5052745;28;20057;-76
2021/06/28 05:23:26;;;;;;;11.85;6.47;;;18.90;99.90;;;;;;5015409;28;20068;-77
2021/06/28 05:25:53;;;;;;;10.98;6.90;;;19.00;99.90;;;;;;5033622;28;20486;-76
2021/06/28 05:28:18;;;;;;;12.13;6.85;;;19.10;99.90;;;;;;5033172;28;20082;-76
2021/06/28 05:30:44;;;;;;;12.45;7.43;;;19.10;99.90;;;;;;5033124;28;20100;-77
2021/06/28 05:33:10;;;;;;;13.77;7.13;;;19.20;99.90;;;;;;5015435;28;20040;-76
2021/06/28 05:35:36;;;;;;;11.52;6.97;;;19.20;99.90;;;;;;5033025;28;20068;-77
2021/06/28 05:38:04;;;;;;;8.80;6.18;;;19.30;99.90;;;;;;5033329;28;20021;-76
2021/06/28 05:40:29;;;;;;;11.52;6.60;;;19.40;99.90;;;;;;5033212;28;20075;-76
2021/06/28 05:42:55;;;;;;;10.05;7.00;;;19.50;99.90;;;;;;5034826;28;20419;-77
2021/06/28 05:45:21;;;;;;;11.20;6.55;;;19.50;99.90;;;;;;5015393;28;20386;-78
2021/06/28 05:47:47;;;;;;;9.35;6.15;;;19.60;99.90;;;;;;5033104;28;20040;-77
2021/06/28 05:50:16;;;;;;;10.00;6.72;;;19.60;99.90;;;;;;5015205;28;20124;-77
2021/06/28 05:52:42;;;;;;;9.30;6.72;;;19.70;99.90;;;;;;5033092;28;20026;-79
2021/06/28 05:55:08;;;;;;;10.65;7.03;;;19.70;99.90;;;;;;5032952;28;20025;-78
2021/06/28 05:57:34;;;;;;;11.82;6.43;;;19.70;99.90;;;;;;5032824;28;20117;-77
2021/06/28 06:00:00;;;;;;;12.02;6.50;;;19.80;99.90;;;;;;5034318;28;20052;-77
2021/06/28 06:02:25;;;;;;;9.88;6.00;;;19.90;99.90;;;;;;5043897;28;20017;-77
2021/06/28 06:04:52;;;;;;;12.85;7.32;;;19.90;99.90;;;;;;5025885;28;20025;-77
2021/06/28 06:07:17;;;;;;;11.35;6.55;;;20.00;99.90;;;;;;5051738;28;20060;-77
2021/06/28 06:09:45;;;;;;;10.13;6.50;;;20.00;99.90;;;;;;5044451;28;20406;-77
2021/06/28 06:12:11;;;;;;;11.60;6.73;;;20.10;99.90;;;;;;5018726;28;20521;-77
2021/06/28 06:14:37;;;;;;;9.15;5.78;;;20.20;99.90;;;;;;5021707;28;20037;-77
2021/06/28 06:17:03;;;;;;;8.65;6.00;;;20.30;99.90;;;;;;5023462;28;20029;-75
2021/06/28 06:19:28;;;;;;;11.65;6.50;;;20.40;99.90;;;;;;5025356;28;20083;-76
2021/06/28 06:21:54;;;;;;;9.80;6.50;;;20.50;99.90;;;;;;5060987;28;20021;-75
2021/06/28 06:24:23;;;;;;;12.13;7.10;;;20.60;99.90;;;;;;5061053;28;20020;-75
2021/06/28 06:26:49;;;;;;;8.95;5.80;;;20.80;99.90;;;;;;5060138;28;20025;-76
2021/06/28 06:29:16;;;;;;;11.00;6.30;;;20.80;99.90;;;;;;5060888;28;20021;-75
2021/06/28 06:31:42;;;;;;;8.70;6.28;;;21.10;99.90;;;;;;5060337;28;20028;-75
2021/06/28 06:34:07;;;;;;;8.50;6.13;;;21.20;99.90;;;;;;5043270;28;20029;-75
2021/06/28 06:36:33;;;;;;;11.23;6.18;;;21.30;99.90;;;;;;5061412;28;20029;-76
2021/06/28 06:38:59;;;;;;;9.45;6.03;;;21.40;99.90;;;;;;5060783;28;20013;-75
2021/06/28 06:41:25;;;;;;;9.43;5.90;;;21.60;99.90;;;;;;5062071;28;20044;-75
2021/06/28 06:43:52;;;;;;;10.50;5.78;;;21.70;99.90;;;;;;5043363;28;20504;-75
2021/06/28 06:46:18;;;;;;;10.88;5.60;;;21.80;99.90;;;;;;5061398;28;20014;-75
2021/06/28 06:48:44;;;;;;;10.93;6.65;;;21.90;99.90;;;;;;5068208;22;20045;-77
2021/06/28 06:51:10;;;;;;;10.50;5.93;;;21.90;99.90;;;;;;5055898;28;20036;-77
2021/06/28 06:53:36;;;;;;;10.82;6.22;;;21.90;99.90;;;;;;5038045;28;20021;-77
2021/06/28 06:56:05;;;;;;;8.45;5.60;;;22.10;99.90;;;;;;5055791;28;20024;-77
2021/06/28 06:58:34;;;;;;;9.55;6.65;;;22.20;99.90;;;;;;5037759;28;20028;-77
2021/06/28 07:01:00;;;;;;;9.27;5.72;;;22.40;99.90;;;;;;5055987;28;20382;-77
2021/06/28 07:03:25;;;;;;;10.93;5.85;;;22.50;99.90;;;;;;5037761;28;20113;-77
2021/06/28 07:05:51;;;;;;;9.52;5.35;;;22.50;99.90;;;;;;5055711;28;20024;-77
2021/06/28 07:08:17;;;;;;;10.10;5.72;;;22.70;99.90;;;;;;5055538;28;20089;-77
2021/06/28 07:10:43;;;;;;;9.02;5.90;;;22.80;99.90;;;;;;5037747;28;20442;-77
2021/06/28 07:13:09;;;;;;;8.60;5.45;;;23.00;99.90;;;;;;5055552;28;20478;-77
2021/06/28 07:15:36;;;;;;;8.32;5.68;;;23.00;99.90;;;;;;5055448;28;20075;-77
2021/06/28 07:18:02;;;;;;;6.88;4.85;;;23.00;99.90;;;;;;5037538;28;20017;-77
2021/06/28 07:20:28;;;;;;;8.00;5.65;;;23.10;99.90;;;;;;5055815;28;20031;-77
2021/06/28 07:22:54;;;;;;;8.45;5.25;;;23.20;99.90;;;;;;5037464;28;20017;-77
2021/06/28 07:25:21;;;;;;;7.32;4.90;;;23.30;99.90;;;;;;5055246;28;20079;-77
2021/06/28 07:27:48;;;;;;;9.50;6.35;;;23.40;99.90;;;;;;5037291;28;20104;-77
2021/06/28 07:30:16;;;;;;;8.63;5.80;;;23.30;99.90;;;;;;5055130;28;20134;-77
2021/06/28 07:32:42;;;;;;;12.65;6.22;;;23.20;99.90;;;;;;5037680;28;20082;-77
2021/06/28 07:35:10;;;;;;;8.70;5.78;;;23.10;99.90;;;;;;5055071;28;20025;-77
2021/06/28 07:37:35;;;;;;;9.52;6.45;;;23.00;99.90;;;;;;5054889;28;20029;-77
2021/06/28 07:40:02;;;;;;;10.40;5.75;;;23.10;99.90;;;;;;5036996;28;20028;-77
2021/06/28 07:42:27;;;;;;;11.00;6.63;;;23.00;99.90;;;;;;5036947;28;20032;-77
2021/06/28 07:44:53;;;;;;;9.82;5.75;;;23.00;99.90;;;;;;5055154;28;20021;-77
2021/06/28 07:47:20;;;;;;;7.78;5.20;;;22.90;99.90;;;;;;5055209;28;20454;-77
2021/06/28 07:49:46;;;;;;;9.85;5.72;;;22.80;99.90;;;;;;5054697;28;20048;-78
2021/06/28 07:52:12;;;;;;;11.15;6.38;;;22.80;99.90;;;;;;5054788;28;20025;-78
2021/06/28 07:54:40;;;;;;;9.02;6.20;;;23.00;99.90;;;;;;5054771;28;20071;-78
2021/06/28 07:57:06;;;;;;;;;;;23.10;99.90;;;;;;5037708;28;20027;-78
2021/06/28 07:59:31;;;;;;;8.43;5.47;;;23.30;99.90;;;;;;5054512;28;20007;-78
2021/06/28 08:01:57;;;;;;;9.93;5.95;;;23.40;99.90;;;;;;5054581;28;20021;-78
2021/06/28 08:04:26;;;;;;;10.80;6.30;;;23.40;99.90;;;;;;5055044;28;20059;-78
2021/06/28 08:06:52;;;;;;;8.80;5.82;;;23.60;99.90;;;;;;5036612;28;20021;-78
2021/06/28 08:09:18;;;;;;;7.22;4.97;;;23.70;99.90;;;;;;5054361;28;20478;-78
2021/06/28 08:11:43;;;;;;;9.38;5.40;;;23.80;99.90;;;;;;5054492;28;20024;-78
2021/06/28 08:14:13;;;;;;;8.95;5.60;;;23.90;99.90;;;;;;5054333;28;20056;-78
2021/06/28 08:16:38;;;;;;;8.55;5.32;;;24.00;99.90;;;;;;5054207;28;20032;-78
2021/06/28 08:19:05;;;;;;;7.93;5.18;;;24.00;99.90;;;;;;5054160;28;20512;-77
2021/06/28 08:21:35;;;;;;;8.23;5.32;;;24.10;99.90;;;;;;5054178;28;20109;-77
2021/06/28 08:24:01;;;;;;;8.00;5.50;;;24.30;99.90;;;;;;5054442;28;20096;-77
2021/06/28 08:26:27;;;;;;;6.85;4.82;;;24.40;99.90;;;;;;5054081;28;20060;-77
2021/06/28 08:28:53;;;;;;;7.90;4.93;;;24.50;99.90;;;;;;5054045;28;20029;-77
2021/06/28 08:31:19;;;;;;;9.18;5.30;;;24.40;99.90;;;;;;5054012;28;20028;-77
2021/06/28 08:33:44;;;;;;;10.00;5.28;;;24.60;99.90;;;;;;5054489;28;20029;-77
2021/06/28 08:36:10;;;;;;;9.13;5.90;;;24.70;99.90;;;;;;5035824;28;20386;-77
2021/06/28 08:38:36;;;;;;;9.52;5.55;;;24.90;99.90;;;;;;5036169;28;20485;-77
2021/06/28 08:41:03;;;;;;;6.82;5.15;;;24.90;99.90;;;;;;5054429;28;20135;-77
2021/06/28 08:43:28;;;;;;;10.48;5.05;;;25.00;99.90;;;;;;5053781;28;20376;-77
2021/06/28 08:45:54;;;;;;;7.93;5.43;;;25.20;99.90;;;;;;5035862;28;20100;-77
2021/06/28 08:48:20;;;;;;;9.38;4.80;;;25.40;99.90;;;;;;5035620;28;20516;-77
2021/06/28 08:50:46;;;;;;;9.75;6.40;;;25.60;99.90;;;;;;5054268;28;20025;-77
2021/06/28 08:53:14;;;;;;;8.85;5.93;;;25.60;99.90;;;;;;5053688;28;20430;-77
2021/06/28 08:55:40;;;;;;;7.35;5.22;;;25.40;99.90;;;;;;5054134;28;20465;-77
2021/06/28 08:58:06;;;;;;;6.55;5.18;;;25.30;99.90;;;;;;5053421;28;20021;-77
2021/06/28 09:00:32;;;;;;;8.45;5.53;;;25.30;99.90;;;;;;5053355;28;20052;-77
2021/06/28 09:03:01;;;;;;;8.68;6.15;;;25.20;99.90;;;;;;5053383;28;20056;-77
2021/06/28 09:05:27;;;;;;;9.05;5.57;;;25.10;99.90;;;;;;5053421;28;20063;-78
2021/06/28 09:08:13;;;;;;;8.85;6.13;;;25.10;99.90;;;;;;5035886;28;20486;-78
2021/06/28 09:10:42;;;;;;;7.45;4.65;;;25.10;99.90;;;;;;5053464;28;20028;-77
2021/06/28 09:13:09;;;;;;;8.10;5.47;;;25.20;99.90;;;;;;5053294;28;20028;-77
2021/06/28 09:15:42;;;;;;;8.32;5.07;;;25.20;99.90;;;;;;5053253;28;20039;-77
2021/06/28 09:18:27;;;;;;;6.63;4.85;;;25.40;99.90;;;;;;5053486;28;20035;-77
2021/06/28 09:21:08;;;;;;;6.63;4.28;;;25.60;99.90;;;;;;5035278;28;20066;-77
2021/06/28 09:23:39;;;;;;;8.00;4.85;;;25.70;99.90;;;;;;5053197;28;20021;-77
2021/06/28 09:26:11;;;;;;;10.13;5.57;;;25.70;99.90;;;;;;5035615;28;20021;-77
2021/06/28 09:28:41;;;;;;;7.70;4.18;;;25.80;99.90;;;;;;5053356;28;20099;-77
2021/06/28 09:31:09;;;;;;;6.03;4.70;;;25.90;99.90;;;;;;5053030;28;20079;-77
2021/06/28 09:33:35;;;;;;;4.65;3.40;;;26.00;99.90;;;;;;5035256;28;20027;-77
2021/06/28 09:36:22;;;;;;;4.05;3.40;;;26.30;99.90;;;;;;5018673;28;20150;-77
2021/06/28 09:38:48;;;;;;;6.28;4.03;;;26.50;99.90;;;;;;5035254;28;20143;-78
2021/06/28 09:41:26;;;;;;;5.72;3.78;;;26.70;99.90;;;;;;5035204;28;20046;-78
2021/06/28 09:43:57;;;;;;;5.65;3.45;;;27.10;99.90;;;;;;5053333;28;20025;-78
2021/06/28 09:46:23;;;;;;;5.63;4.15;;;27.40;99.90;;;;;;5053032;28;20024;-78
2021/06/28 09:48:51;;;;;;;7.57;4.30;;;27.30;99.90;;;;;;5055317;28;20033;-78
2021/06/28 09:51:27;;;;;;;5.00;3.67;;;27.30;99.90;;;;;;5039157;28;20017;-78
2021/06/28 09:54:05;;;;;;;6.18;4.47;;;27.30;99.90;;;;;;5039364;28;20055;-78
2021/06/28 09:56:35;;;;;;;11.45;4.78;;;27.30;99.90;;;;;;5056994;28;20033;-78
2021/06/28 09:59:22;;;;;;;4.90;3.78;;;27.00;99.90;;;;;;5038857;28;20028;-77
2021/06/28 10:01:50;;;;;;;5.93;4.18;;;26.60;99.90;;;;;;5038979;28;20035;-77
2021/06/28 10:04:37;;;;;;;5.10;3.50;;;26.50;99.90;;;;;;5057086;28;20079;-78
2021/06/28 10:07:39;;;;;;;7.13;4.38;;;26.50;99.90;;;;;;5038935;28;20033;-78
2021/06/28 10:10:30;;;;;;;6.43;4.55;;;26.40;99.90;;;;;;4975699;28;20026;-77
2021/06/28 10:13:05;;;;;;;6.95;4.28;;;26.20;99.90;;;;;;5043993;28;20033;-77
2021/06/28 10:15:35;;;;;;;6.35;4.05;;;26.00;99.90;;;;;;5056491;28;20104;-77
2021/06/28 10:18:01;;;;;;;7.18;4.85;;;25.80;99.90;;;;;;5056379;28;20033;-77
2021/06/28 10:20:30;;;;;;;4.95;4.32;;;25.60;99.90;;;;;;5056340;28;20535;-77
2021/06/28 10:22:56;;;;;;;5.47;4.50;;;25.40;99.90;;;;;;5056228;28;20054;-77
2021/06/28 10:25:24;;;;;;;6.47;3.83;;;25.20;99.90;;;;;;5056262;28;20029;-77
2021/06/28 10:27:51;;;;;;;8.98;3.90;;;25.10;99.90;;;;;;5056342;28;20458;-77
2021/06/28 10:30:19;;;;;;;18.75;4.38;;;26.40;99.90;;;;;;5038457;28;20021;-77
2021/06/28 10:32:48;;;;;;;9.98;3.30;;;25.00;99.90;;;;;;5056222;28;20056;-77
2021/06/28 10:35:20;;;;;;;5.47;3.40;;;25.00;99.90;;;;;;5056082;28;20143;-77
2021/06/28 10:37:50;;;;;;;6.45;4.15;;;24.90;99.90;;;;;;5038694;28;20231;-79
2021/06/28 10:40:23;;;;;;;3.97;3.13;;;24.80;99.90;;;;;;5038634;28;20017;-78
2021/06/28 10:42:52;;;;;;;5.88;2.97;;;24.70;99.90;;;;;;5038670;28;20025;-78
2021/06/28 10:45:38;;;;;;;6.15;3.15;;;24.60;99.90;;;;;;5038208;28;20118;-77
2021/06/28 10:48:13;;;;;;;3.90;2.80;;;24.40;99.90;;;;;;5038097;28;20043;-77
2021/06/28 10:50:51;;;;;;;5.22;3.08;;;24.40;99.90;;;;;;5055704;28;20386;-77
2021/06/28 10:53:32;;;;;;;5.78;3.22;;;24.20;99.90;;;;;;5055783;28;20056;-77
2021/06/28 10:55:59;;;;;;;5.53;3.20;;;24.20;99.90;;;;;;5037646;28;20064;-77
2021/06/28 10:58:29;;;;;;;4.28;3.38;;;24.10;99.90;;;;;;5055016;28;20025;-77
2021/06/28 11:01:06;;;;;;;5.90;3.40;;;24.20;99.90;;;;;;5037557;28;20108;-77
2021/06/28 11:03:33;;;;;;;6.03;4.30;;;23.90;99.90;;;;;;5055995;28;20040;-76
2021/06/28 11:06:17;;;;;;;5.57;3.67;;;23.90;99.90;;;;;;5055740;28;20112;-76
2021/06/28 11:08:55;;;;;;;6.35;4.07;;;23.90;99.90;;;;;;5037918;28;20029;-75
2021/06/28 11:11:46;;;;;;;4.15;3.50;;;23.90;99.90;;;;;;5037505;28;20017;-75
2021/06/28 11:14:18;;;;;;;6.70;4.10;;;23.90;99.90;;;;;;5035651;28;20475;-75
2021/06/28 11:16:58;;;;;;;7.40;4.40;;;23.90;99.90;;;;;;5018049;28;20044;-77
2021/06/28 11:19:45;;;;;;;9.52;5.13;;;24.00;99.90;;;;;;5035362;28;20021;-76
2021/06/28 11:22:30;;;;;;;6.18;3.90;;;24.00;99.90;;;;;;5036019;28;20021;-77
2021/06/28 11:25:08;;;;;;;5.10;4.07;;;24.00;99.90;;;;;;5035495;28;20025;-77
2021/06/28 11:27:35;;;;;;;8.93;4.55;;;24.10;99.90;;;;;;5035575;28;20032;-77
2021/06/28 11:30:02;;;;;;;8.33;5.30;;;24.10;99.90;;;;;;5032049;28;20024;-77
2021/06/28 11:32:30;;;;;;;5.40;3.95;;;24.10;99.90;;;;;;5055744;28;20271;-77
2021/06/28 11:34:57;;;;;;;8.65;5.70;;;24.10;99.90;;;;;;5055111;28;20025;-77
2021/06/28 11:37:24;;;;;;;8.00;5.30;;;24.10;99.90;;;;;;5037288;28;20020;-77
2021/06/28 11:39:54;;;;;;;7.13;4.95;;;24.00;99.90;;;;;;5055141;28;20071;-77
2021/06/28 11:42:23;;;;;;;6.40;4.28;;;24.00;99.90;;;;;;5054914;28;20386;-76
2021/06/28 11:45:01;;;;;;;5.93;4.40;;;23.90;99.90;;;;;;5055081;28;20092;-77
2021/06/28 11:48:00;;;;;;;9.43;5.40;;;23.90;99.90;;;;;;5054688;28;20033;-77
2021/06/28 11:50:38;;;;;;;8.52;5.18;;;23.80;99.90;;;;;;5043061;28;20044;-76
2021/06/28 11:53:07;;;;;;;7.50;5.10;;;23.80;99.90;;;;;;5036750;28;20028;-77
2021/06/28 11:55:36;;;;;;;10.05;5.97;;;23.80;99.90;;;;;;5054615;28;20025;-77
2021/06/28 11:58:03;;;;;;;11.85;5.68;;;23.80;99.90;;;;;;5054837;28;20036;-76
2021/06/28 12:00:29;;;;;;;7.28;4.97;;;23.80;99.90;;;;;;5036699;28;20025;-76
2021/06/28 12:03:16;;;;;;;7.32;4.65;;;23.80;99.90;;;;;;5036791;28;20097;-77
2021/06/28 12:05:45;;;;;;;6.40;4.38;;;23.70;99.90;;;;;;5036574;28;20475;-77
2021/06/28 12:08:12;;;;;;;8.23;4.22;;;23.70;99.90;;;;;;5054620;28;20025;-76
2021/06/28 12:10:40;;;;;;;7.37;3.73;;;23.70;99.90;;;;;;5054112;28;20036;-77
2021/06/28 12:13:06;;;;;;;8.00;5.33;;;23.70;99.90;;;;;;5054639;28;20025;-77
2021/06/28 12:15:32;;;;;;;9.50;5.30;;;23.60;99.90;;;;;;5036690;28;20027;-77
2021/06/28 12:18:04;;;;;;;7.32;4.82;;;23.50;99.90;;;;;;5054187;28;20082;-77
2021/06/28 12:20:34;;;;;;;9.15;6.30;;;23.60;99.90;;;;;;5037394;28;20501;-77
2021/06/28 12:23:07;;;;;;;8.43;5.80;;;23.60;99.90;;;;;;5036227;28;20025;-77
2021/06/28 12:25:33;;;;;;;8.88;5.35;;;23.50;99.90;;;;;;5054207;28;20021;-77
2021/06/28 12:27:58;;;;;;;8.20;5.63;;;23.50;99.90;;;;;;5054344;28;20421;-76
2021/06/28 12:30:24;;;;;;;8.23;5.18;;;23.60;99.90;;;;;;5053973;28;20021;-77
2021/06/28 12:32:59;;;;;;;8.00;5.25;;;23.60;99.90;;;;;;5054015;28;20025;-77
2021/06/28 12:35:27;;;;;;;8.65;5.95;;;23.70;99.90;;;;;;5036175;28;20021;-77
2021/06/28 12:37:59;;;;;;;10.18;6.30;;;23.80;99.90;;;;;;5035665;28;20021;-77
2021/06/28 12:40:32;;;;;;;10.43;6.97;;;23.90;99.90;;;;;;5035934;28;20021;-77
2021/06/28 12:42:57;;;;;;;10.32;7.43;;;24.10;99.90;;;;;;5053902;28;20021;-77
2021/06/28 12:45:28;;;;;;;8.60;6.40;;;24.20;99.90;;;;;;5053804;28;20028;-76
2021/06/28 12:47:55;;;;;;;10.95;6.13;;;24.30;99.90;;;;;;5053575;28;20109;-77
2021/06/28 12:50:23;;;;;;;12.93;6.38;;;24.40;99.90;;;;;;5035961;28;20420;-77